Maersk Vallvik — 9V8839 — position and weather

sailwx.info

Track history (hours):
 
Tides and Currents Weather Stations Pressure Air Temp Water Temp Dewpoint Dewpoint Depression Visibility Wind Speed Wind Dir Waves Ship Positions

Maersk Vallvik

Last reported at 2015-Aug-28 00:30 UTC. Time now 2015-Sep-02 08:36 UTC.
Position N 25°58' W 077°44'.

Length 180 m; draft 9.2 m.

Type: Ship. MMSI: 564837000.

Date/timePositionNaut miles runAvg speedWind from/ knotsBaromVisibWave heightAir tempDewpointWater temp
2015-Aug-28 00:30N 25°58' W 077°44'4815.3
2015-Aug-27 21:23N 26°20' W 078°31'1615.6
2015-Aug-27 20:22N 26°28' W 078°47'  
2015-Aug-25 02:07N 33°02' W 078°13'1811.0
2015-Aug-25 00:26N 33°10' W 077°52'7612.5
2015-Aug-24 18:21N 33°52' W 076°36'2412.4
2015-Aug-24 16:24N 34°06' W 076°13'2914.1
2015-Aug-24 14:20N 34°27' W 075°48'1315.0
2015-Aug-24 13:28N 34°37' W 075°38'1713.3
2015-Aug-24 12:09N 34°49' W 075°23'1111.8
2015-Aug-24 11:14N 34°58' W 075°14'811.4
2015-Aug-24 10:33N 35°03' W 075°08'1110.6
2015-Aug-24 09:30N 35°14' W 075°03'1913.6
2015-Aug-24 08:05N 35°33' W 075°02'914.3
2015-Aug-24 07:28N 35°42' W 075°02'141 5.0
2015-Aug-23 03:15N 37°52' W 076°10'1816.7
2015-Aug-23 02:09N 38°10' W 076°14'2716.9
2015-Aug-23 00:33N 38°35' W 076°26'1716.9
2015-Aug-22 23:33N 38°52' W 076°24'1515.4
2015-Aug-22 22:33N 39°07' W 076°24'1111.3
2015-Aug-22 21:34N 39°15' W 076°34'1 0.6
2015-Aug-22 20:28N 39°15' W 076°33'0 0.0
2015-Aug-22 19:31N 39°15' W 076°33'0 0.0
2015-Aug-22 18:31N 39°15' W 076°33'0 0.0
2015-Aug-22 17:31N 39°15' W 076°33'0 0.0
2015-Aug-22 16:32N 39°15' W 076°33'5 5.2
2015-Aug-22 15:33N 39°11' W 076°29'9 9.2
2015-Aug-22 14:33N 39°03' W 076°23'1212.3
2015-Aug-22 13:33N 38°51' W 076°24'1515.1
2015-Aug-22 12:33N 38°36' W 076°26'1515.3
2015-Aug-22 11:33N 38°21' W 076°19'1715.8
2015-Aug-22 10:30N 38°05' W 076°13'2216.6
2015-Aug-22 09:12N 37°44' W 076°11'1116.6
2015-Aug-22 08:30N 37°34' W 076°03'1616.3
2015-Aug-22 07:32N 37°18' W 076°06'3811.0
2015-Aug-22 04:07N 36°53' W 075°31'813.9
2015-Aug-22 03:33N 36°56' W 075°22'6014.1
2015-Aug-21 23:19N 37°49' W 074°46'1314.4
2015-Aug-21 22:27N 37°59' W 074°38'1314.4
2015-Aug-21 21:31N 38°11' W 074°29'2014.6
2015-Aug-21 20:09N 38°28' W 074°16'1014.1
2015-Aug-21 19:27N 38°37' W 074°11'3013.9
2015-Aug-21 17:17N 39°06' W 074°01'1013.9
2015-Aug-21 16:33N 39°16' W 073°58'1413.8
2015-Aug-21 15:33N 39°30' W 073°55'1413.6
2015-Aug-21 14:33N 39°43' W 073°52'1313.2
2015-Aug-21 13:33N 39°56' W 073°51'1513.4
2015-Aug-21 12:28N 40°11' W 073°50'1213.5
2015-Aug-21 11:34N 40°23' W 073°49'1212.2
2015-Aug-21 10:33N 40°31' W 074°00'9 9.4
2015-Aug-21 09:34N 40°39' W 074°08'3 2.8
2015-Aug-21 08:33N 40°41' W 074°09'0 0.0
2015-Aug-21 07:34N 40°41' W 074°09'0 0.0
2015-Aug-21 06:31N 40°41' W 074°09'0 0.0
2015-Aug-21 05:34N 40°41' W 074°09'0 0.0
2015-Aug-21 04:34N 40°41' W 074°09'0 0.0
2015-Aug-21 03:31N 40°41' W 074°09'0 0.0
2015-Aug-21 02:34N 40°41' W 074°09'0 0.0
2015-Aug-21 01:34N 40°41' W 074°09'0 0.0
2015-Aug-21 00:34N 40°41' W 074°09'0 0.0
2015-Aug-20 23:31N 40°41' W 074°09'0 0.0
2015-Aug-20 22:31N 40°41' W 074°09'0 0.0
2015-Aug-20 21:31N 40°41' W 074°09'0 0.0
2015-Aug-20 20:34N 40°41' W 074°09'0 0.0
2015-Aug-20 19:28N 40°41' W 074°09'0 0.0
2015-Aug-20 18:31N 40°41' W 074°09'0 0.0
2015-Aug-20 17:34N 40°41' W 074°09'0 0.0
2015-Aug-20 16:34N 40°41' W 074°09'0 0.0
2015-Aug-20 15:31N 40°41' W 074°09'0 0.0
2015-Aug-20 14:31N 40°41' W 074°09'0 0.0
2015-Aug-20 13:34N 40°41' W 074°09'0 0.0
2015-Aug-20 12:31N 40°41' W 074°09'0 0.0
2015-Aug-20 11:31N 40°41' W 074°09'0 0.0
2015-Aug-20 10:31N 40°41' W 074°09'0 0.0
2015-Aug-20 09:34N 40°41' W 074°09'0 0.0
2015-Aug-20 08:31N 40°41' W 074°09'0 0.0
2015-Aug-20 07:31N 40°41' W 074°09'0 0.0
2015-Aug-20 06:31N 40°41' W 074°09'0 0.0
2015-Aug-20 05:31N 40°41' W 074°09'0 0.0
2015-Aug-20 04:34N 40°41' W 074°09'0 0.0
2015-Aug-20 03:34N 40°41' W 074°09'0 0.0
2015-Aug-20 02:31N 40°41' W 074°09'0 0.0
2015-Aug-20 01:31N 40°41' W 074°09'0 0.0
2015-Aug-20 00:31N 40°41' W 074°09'0 0.0
2015-Aug-19 23:34N 40°41' W 074°09'2 1.6
2015-Aug-19 22:34N 40°40' W 074°09'4 4.3
2015-Aug-19 21:34N 40°38' W 074°03'9 8.8
2015-Aug-19 20:34N 40°30' W 073°58'1010.0
2015-Aug-19 19:32N 40°25' W 073°46'62 8.6
2015-Aug-19 12:24N 39°53' W 072°37'8 9.8
2015-Aug-19 11:33N 39°50' W 072°27'1110.5
2015-Aug-19 10:29N 39°46' W 072°14'1010.3
2015-Aug-19 09:32N 39°41' W 072°02'1110.0
2015-Aug-19 08:28N 39°36' W 071°50'12 9.8
2015-Aug-19 07:14N 39°30' W 071°37'1810.2
2015-Aug-19 05:27N 39°21' W 071°16'910.1
2015-Aug-19 04:33N 39°18' W 071°05'1212.1
2015-Aug-19 03:33N 39°12' W 070°51'9 8.9
2015-Aug-19 02:33N 39°08' W 070°41'1110.6
2015-Aug-19 01:33N 39°04' W 070°29'1110.8
2015-Aug-19 00:29N 38°59' W 070°15'910.1
2015-Aug-18 23:33N 38°57' W 070°04'10 9.9
2015-Aug-18 22:33N 38°54' W 069°51'3 3.0
2015-Aug-18 21:29N 38°52' W 069°48'1 0.5
2015-Aug-18 20:31N 38°52' W 069°48'1 0.9
2015-Aug-18 19:31N 38°51' W 069°48'1 1.3
2015-Aug-18 18:21N 38°50' W 069°48'1 1.3
2015-Aug-18 17:33N 38°49' W 069°48'2 1.3
2015-Aug-18 16:19N 38°47' W 069°48'1 1.3
2015-Aug-18 15:33N 38°46' W 069°48'  
Track history (hours):
 
Tides and Currents Weather Stations Pressure Air Temp Water Temp Dewpoint Dewpoint Depression Visibility Wind Speed Wind Dir Waves Ship Positions

Maersk Vallvik

Last reported at 2015-Aug-28 00:30 UTC. Time now 2015-Sep-02 08:36 UTC.
Position N 25°58' W 077°44'.

Length 180 m; draft 9.2 m.

Type: Ship. MMSI: 564837000.

Date/timePositionNaut miles runAvg speedWind from/ knotsBaromVisibWave heightAir tempDewpointWater temp
2015-Aug-28 00:30N 25°58' W 077°44'4815.3
2015-Aug-27 21:23N 26°20' W 078°31'1615.6
2015-Aug-27 20:22N 26°28' W 078°47'  
2015-Aug-25 02:07N 33°02' W 078°13'1811.0
2015-Aug-25 00:26N 33°10' W 077°52'7612.5
2015-Aug-24 18:21N 33°52' W 076°36'2412.4
2015-Aug-24 16:24N 34°06' W 076°13'2914.1
2015-Aug-24 14:20N 34°27' W 075°48'1315.0
2015-Aug-24 13:28N 34°37' W 075°38'1713.3
2015-Aug-24 12:09N 34°49' W 075°23'1111.8
2015-Aug-24 11:14N 34°58' W 075°14'811.4
2015-Aug-24 10:33N 35°03' W 075°08'1110.6
2015-Aug-24 09:30N 35°14' W 075°03'1913.6
2015-Aug-24 08:05N 35°33' W 075°02'914.3
2015-Aug-24 07:28N 35°42' W 075°02'141 5.0
2015-Aug-23 03:15N 37°52' W 076°10'1816.7
2015-Aug-23 02:09N 38°10' W 076°14'2716.9
2015-Aug-23 00:33N 38°35' W 076°26'1716.9
2015-Aug-22 23:33N 38°52' W 076°24'1515.4
2015-Aug-22 22:33N 39°07' W 076°24'1111.3
2015-Aug-22 21:34N 39°15' W 076°34'1 0.6
2015-Aug-22 20:28N 39°15' W 076°33'0 0.0
2015-Aug-22 19:31N 39°15' W 076°33'0 0.0
2015-Aug-22 18:31N 39°15' W 076°33'0 0.0
2015-Aug-22 17:31N 39°15' W 076°33'0 0.0
2015-Aug-22 16:32N 39°15' W 076°33'5 5.2
2015-Aug-22 15:33N 39°11' W 076°29'9 9.2
2015-Aug-22 14:33N 39°03' W 076°23'1212.3
2015-Aug-22 13:33N 38°51' W 076°24'1515.1
2015-Aug-22 12:33N 38°36' W 076°26'1515.3
2015-Aug-22 11:33N 38°21' W 076°19'1715.8
2015-Aug-22 10:30N 38°05' W 076°13'2216.6
2015-Aug-22 09:12N 37°44' W 076°11'1116.6
2015-Aug-22 08:30N 37°34' W 076°03'1616.3
2015-Aug-22 07:32N 37°18' W 076°06'3811.0
2015-Aug-22 04:07N 36°53' W 075°31'813.9
2015-Aug-22 03:33N 36°56' W 075°22'6014.1
2015-Aug-21 23:19N 37°49' W 074°46'1314.4
2015-Aug-21 22:27N 37°59' W 074°38'1314.4
2015-Aug-21 21:31N 38°11' W 074°29'2014.6
2015-Aug-21 20:09N 38°28' W 074°16'1014.1
2015-Aug-21 19:27N 38°37' W 074°11'3013.9
2015-Aug-21 17:17N 39°06' W 074°01'1013.9
2015-Aug-21 16:33N 39°16' W 073°58'1413.8
2015-Aug-21 15:33N 39°30' W 073°55'1413.6
2015-Aug-21 14:33N 39°43' W 073°52'1313.2
2015-Aug-21 13:33N 39°56' W 073°51'1513.4
2015-Aug-21 12:28N 40°11' W 073°50'1213.5
2015-Aug-21 11:34N 40°23' W 073°49'1212.2
2015-Aug-21 10:33N 40°31' W 074°00'9 9.4
2015-Aug-21 09:34N 40°39' W 074°08'3 2.8
2015-Aug-21 08:33N 40°41' W 074°09'0 0.0
2015-Aug-21 07:34N 40°41' W 074°09'0 0.0
2015-Aug-21 06:31N 40°41' W 074°09'0 0.0
2015-Aug-21 05:34N 40°41' W 074°09'0 0.0
2015-Aug-21 04:34N 40°41' W 074°09'0 0.0
2015-Aug-21 03:31N 40°41' W 074°09'0 0.0
2015-Aug-21 02:34N 40°41' W 074°09'0 0.0
2015-Aug-21 01:34N 40°41' W 074°09'0 0.0
2015-Aug-21 00:34N 40°41' W 074°09'0 0.0
2015-Aug-20 23:31N 40°41' W 074°09'0 0.0
2015-Aug-20 22:31N 40°41' W 074°09'0 0.0
2015-Aug-20 21:31N 40°41' W 074°09'0 0.0
2015-Aug-20 20:34N 40°41' W 074°09'0 0.0
2015-Aug-20 19:28N 40°41' W 074°09'0 0.0
2015-Aug-20 18:31N 40°41' W 074°09'0 0.0
2015-Aug-20 17:34N 40°41' W 074°09'0 0.0
2015-Aug-20 16:34N 40°41' W 074°09'0 0.0
2015-Aug-20 15:31N 40°41' W 074°09'0 0.0
2015-Aug-20 14:31N 40°41' W 074°09'0 0.0
2015-Aug-20 13:34N 40°41' W 074°09'0 0.0
2015-Aug-20 12:31N 40°41' W 074°09'0 0.0
2015-Aug-20 11:31N 40°41' W 074°09'0 0.0
2015-Aug-20 10:31N 40°41' W 074°09'0 0.0
2015-Aug-20 09:34N 40°41' W 074°09'0 0.0
2015-Aug-20 08:31N 40°41' W 074°09'0 0.0
2015-Aug-20 07:31N 40°41' W 074°09'0 0.0
2015-Aug-20 06:31N 40°41' W 074°09'0 0.0
2015-Aug-20 05:31N 40°41' W 074°09'0 0.0
2015-Aug-20 04:34N 40°41' W 074°09'0 0.0
2015-Aug-20 03:34N 40°41' W 074°09'0 0.0
2015-Aug-20 02:31N 40°41' W 074°09'0 0.0
2015-Aug-20 01:31N 40°41' W 074°09'0 0.0
2015-Aug-20 00:31N 40°41' W 074°09'0 0.0
2015-Aug-19 23:34N 40°41' W 074°09'2 1.6
2015-Aug-19 22:34N 40°40' W 074°09'4 4.3
2015-Aug-19 21:34N 40°38' W 074°03'9 8.8
2015-Aug-19 20:34N 40°30' W 073°58'1010.0
2015-Aug-19 19:32N 40°25' W 073°46'62 8.6
2015-Aug-19 12:24N 39°53' W 072°37'8 9.8
2015-Aug-19 11:33N 39°50' W 072°27'1110.5
2015-Aug-19 10:29N 39°46' W 072°14'1010.3
2015-Aug-19 09:32N 39°41' W 072°02'1110.0
2015-Aug-19 08:28N 39°36' W 071°50'12 9.8
2015-Aug-19 07:14N 39°30' W 071°37'1810.2
2015-Aug-19 05:27N 39°21' W 071°16'910.1
2015-Aug-19 04:33N 39°18' W 071°05'1212.1
2015-Aug-19 03:33N 39°12' W 070°51'9 8.9
2015-Aug-19 02:33N 39°08' W 070°41'1110.6
2015-Aug-19 01:33N 39°04' W 070°29'1110.8
2015-Aug-19 00:29N 38°59' W 070°15'910.1
2015-Aug-18 23:33N 38°57' W 070°04'10 9.9
2015-Aug-18 22:33N 38°54' W 069°51'3 3.0
2015-Aug-18 21:29N 38°52' W 069°48'1 0.5
2015-Aug-18 20:31N 38°52' W 069°48'1 0.9
2015-Aug-18 19:31N 38°51' W 069°48'1 1.3
2015-Aug-18 18:21N 38°50' W 069°48'1 1.3
2015-Aug-18 17:33N 38°49' W 069°48'2 1.3
2015-Aug-18 16:19N 38°47' W 069°48'1 1.3
2015-Aug-18 15:33N 38°46' W 069°48'  

Dump ship's entire track history